METAR Data
IDs: Format: Raw Decoded Include TAF

Data at: 0123 UTC 01 Nov 2020

KRZL 010115Z AUTO 17012G19KT 10SM CLR 10/03 A2999 RMK AO2 PWINO